Time;durP1;ratioP1;P1;durP2;ratioP2;P2;SDS_P1;SDS_P2;PMS_P1;PMS_P2;Temp;Humidity;BMP_temperature;BMP_pressure;BME280_temperature;BME280_humidity;BME280_pressure;Samples;Min_cycle;Max_cycle;Signal;HPM_P1;HPM_P2
2023/02/07 00:00:16;;;;;;;8.53;6.13;;;5.90;1.00;;;;;;5033164;28;20373;-48
2023/02/07 00:02:43;;;;;;;18.57;6.43;;;6.30;1.00;;;;;;5032608;28;20133;-47
2023/02/07 00:05:10;;;;;;;8.40;5.97;;;6.00;1.00;;;;;;5032990;28;20542;-47
2023/02/07 00:07:36;;;;;;;6.87;6.17;;;6.00;1.00;;;;;;5033133;28;20475;-49
2023/02/07 00:10:02;;;;;;;8.93;5.40;;;6.10;1.00;;;;;;5032748;28;20068;-47
2023/02/07 00:12:28;;;;;;;9.27;6.40;;;6.20;1.00;;;;;;5041901;28;20119;-48
2023/02/07 00:14:53;;;;;;;9.23;5.80;;;6.10;1.00;;;;;;5037406;28;20034;-49
2023/02/07 00:17:19;;;;;;;6.07;5.37;;;6.10;1.00;;;;;;5032886;28;20036;-48
2023/02/07 00:19:45;;;;;;;6.90;5.20;;;6.20;1.00;;;;;;5033465;28;20032;-49
2023/02/07 00:22:10;;;;;;;7.53;5.83;;;6.20;1.00;;;;;;5027886;28;20037;-51
2023/02/07 00:24:36;;;;;;;9.90;6.57;;;6.00;1.00;;;;;;5045014;28;20021;-47
2023/02/07 00:27:01;;;;;;;9.37;7.30;;;5.80;1.00;;;;;;5033724;28;20061;-47
2023/02/07 00:29:27;;;;;;;11.90;7.40;;;5.80;1.00;;;;;;5033737;28;20029;-47
2023/02/07 00:31:53;;;;;;;8.57;7.67;;;5.90;1.00;;;;;;5019893;28;20029;-48
2023/02/07 00:34:18;;;;;;;12.87;8.30;;;5.80;1.00;;;;;;5033260;28;20103;-50
2023/02/07 00:36:44;;;;;;;14.87;9.03;;;5.70;1.00;;;;;;5033484;28;20431;-47
2023/02/07 00:39:14;;;;;;;11.77;8.90;;;5.90;1.00;;;;;;5031768;28;20030;-46
2023/02/07 00:41:41;;;;;;;12.17;8.50;;;6.00;1.00;;;;;;5033487;28;20097;-47
2023/02/07 00:44:07;;;;;;;11.10;8.70;;;5.90;1.00;;;;;;5033314;28;20029;-48
2023/02/07 00:46:34;;;;;;;11.93;8.87;;;5.90;1.00;;;;;;5033513;28;20172;-47
2023/02/07 00:49:00;;;;;;;15.80;8.20;;;5.80;1.00;;;;;;5031678;28;20028;-53
2023/02/07 00:51:25;;;;;;;13.00;8.87;;;6.10;1.00;;;;;;5033346;28;20064;-53
2023/02/07 00:53:55;;;;;;;12.67;9.73;;;6.00;1.00;;;;;;5033131;28;20397;-53
2023/02/07 00:56:22;;;;;;;18.20;9.63;;;6.10;1.00;;;;;;5031893;28;20039;-53
2023/02/07 00:58:48;;;;;;;12.93;8.70;;;6.10;1.00;;;;;;5032963;28;20029;-54
2023/02/07 01:01:14;;;;;;;13.57;9.43;;;6.10;1.00;;;;;;5031627;28;20045;-49
2023/02/07 01:03:40;;;;;;;11.97;8.87;;;6.20;1.00;;;;;;5032384;28;20078;-49
2023/02/07 01:06:07;;;;;;;12.67;9.07;;;6.10;1.00;;;;;;5032773;28;20025;-48
2023/02/07 01:08:33;;;;;;;12.87;9.03;;;6.20;1.00;;;;;;5032863;28;20045;-48
2023/02/07 01:11:03;;;;;;;12.03;8.70;;;5.90;1.00;;;;;;5032744;28;20094;-47
2023/02/07 01:13:29;;;;;;;10.03;8.47;;;6.00;1.00;;;;;;5031253;28;20487;-49
2023/02/07 01:15:55;;;;;;;11.83;8.33;;;6.10;1.00;;;;;;5032733;28;20044;-47
2023/02/07 01:18:20;;;;;;;15.67;9.03;;;6.20;1.00;;;;;;5032653;28;20033;-49
2023/02/07 01:20:46;;;;;;;14.53;9.40;;;6.10;1.00;;;;;;5032671;28;20537;-48
2023/02/07 01:23:13;;;;;;;14.53;9.33;;;6.00;1.00;;;;;;5031245;28;20091;-47
2023/02/07 01:25:40;;;;;;;13.03;9.73;;;5.90;1.00;;;;;;5032453;28;20020;-48
2023/02/07 01:28:06;;;;;;;13.03;9.53;;;5.90;1.00;;;;;;5032556;28;20464;-51
2023/02/07 01:30:32;;;;;;;14.07;9.43;;;6.00;1.00;;;;;;5028816;28;20010;-48
2023/02/07 01:32:58;;;;;;;14.80;10.67;;;6.00;1.00;;;;;;5022604;28;20029;-48
2023/02/07 01:35:24;;;;;;;12.87;10.07;;;6.00;1.00;;;;;;5044200;28;20509;-47
2023/02/07 01:37:49;;;;;;;12.43;9.27;;;6.00;1.00;;;;;;5034041;28;20475;-48
2023/02/07 01:40:15;;;;;;;12.47;10.53;;;5.80;1.00;;;;;;5032309;28;20025;-49
2023/02/07 01:42:41;;;;;;;16.33;10.47;;;5.90;1.00;;;;;;5032084;28;20036;-48
2023/02/07 01:45:38;;;;;;;13.93;9.33;;;5.80;1.00;;;;;;5032192;28;20108;-49
2023/02/07 01:48:13;;;;;;;16.13;10.47;;;5.90;1.00;;;;;;5032213;28;20037;-47
2023/02/07 01:50:41;;;;;;;12.57;10.30;;;5.80;1.00;;;;;;5024243;28;20026;-47
2023/02/07 01:53:09;;;;;;;12.50;10.17;;;5.80;1.00;;;;;;5030147;28;20021;-47
2023/02/07 01:55:37;;;;;;;16.33;10.47;;;5.80;1.00;;;;;;5031962;28;20021;-51
2023/02/07 01:58:04;;;;;;;14.53;9.63;;;6.00;1.00;;;;;;5032002;28;20070;-48
2023/02/07 02:00:30;;;;;;;12.40;9.60;;;5.90;1.00;;;;;;5032010;28;20175;-51
2023/02/07 02:02:56;;;;;;;13.27;10.03;;;5.90;1.00;;;;;;5031794;28;20543;-53
2023/02/07 02:05:33;;;;;;;13.77;9.30;;;5.90;1.00;;;;;;5031874;28;20339;-53
2023/02/07 02:07:59;;;;;;;13.43;9.97;;;5.80;1.00;;;;;;5031615;28;20038;-51
2023/02/07 02:10:43;;;;;;;14.43;10.37;;;6.00;1.00;;;;;;5031773;28;20063;-50
2023/02/07 02:13:44;;;;;;;14.40;10.60;;;6.00;1.00;;;;;;5031924;28;20029;-49
2023/02/07 02:16:30;;;;;;;13.67;10.00;;;5.90;1.00;;;;;;5019247;28;20030;-51
2023/02/07 02:19:13;;;;;;;14.27;10.23;;;5.90;1.00;;;;;;5030920;28;20053;-50
2023/02/07 02:21:42;;;;;;;15.73;10.50;;;5.90;1.00;;;;;;5031193;28;20087;-48
2023/02/07 02:24:28;;;;;;;14.57;9.93;;;5.80;1.00;;;;;;5031296;28;20083;-48
2023/02/07 02:27:16;;;;;;;13.33;10.53;;;5.90;1.00;;;;;;5030874;28;20103;-47
2023/02/07 02:30:12;;;;;;;12.93;9.73;;;5.90;1.00;;;;;;5030592;28;20029;-47
2023/02/07 02:32:59;;;;;;;14.63;9.90;;;5.80;1.00;;;;;;5018071;28;20033;-48
2023/02/07 02:35:33;;;;;;;15.07;11.07;;;5.90;1.00;;;;;;5030750;28;20455;-48
2023/02/07 02:38:14;;;;;;;16.05;10.90;;;5.80;1.00;;;;;;5030149;28;20540;-50
2023/02/07 02:40:49;;;;;;;19.83;11.30;;;5.90;1.00;;;;;;5031992;28;20014;-47
2023/02/07 02:43:20;;;;;;;17.70;10.43;;;5.90;1.00;;;;;;5031537;28;20033;-48
2023/02/07 02:45:52;;;;;;;16.67;10.47;;;5.80;1.00;;;;;;5031839;28;20076;-48
2023/02/07 02:48:18;;;;;;;16.77;10.67;;;5.80;1.00;;;;;;5031645;28;20038;-48
2023/02/07 02:50:46;;;;;;;15.83;11.53;;;5.70;1.00;;;;;;5031590;28;20115;-49
2023/02/07 02:53:13;;;;;;;18.70;12.17;;;5.80;1.00;;;;;;5031279;28;20026;-48
2023/02/07 02:56:10;;;;;;;15.63;11.30;;;5.90;1.00;;;;;;5031431;28;20034;-48
2023/02/07 02:59:20;;;;;;;15.50;11.07;;;5.70;1.00;;;;;;5018728;28;20029;-49
2023/02/07 03:02:07;;;;;;;18.53;11.10;;;5.80;1.00;;;;;;5031383;28;20045;-49
2023/02/07 03:04:54;;;;;;;15.50;11.17;;;5.80;1.00;;;;;;5031030;28;20384;-48
2023/02/07 03:07:44;;;;;;;16.53;11.63;;;5.90;1.00;;;;;;5031304;28;20056;-49
2023/02/07 03:10:24;;;;;;;16.47;12.00;;;5.90;1.00;;;;;;5020063;28;20033;-47
2023/02/07 03:12:58;;;;;;;17.93;11.40;;;6.00;1.00;;;;;;5031278;28;20360;-51
2023/02/07 03:15:40;;;;;;;16.97;11.80;;;5.90;1.00;;;;;;5031109;28;20022;-48
2023/02/07 03:18:14;;;;;;;15.10;10.83;;;5.90;1.00;;;;;;5031539;28;20033;-48
2023/02/07 03:20:53;;;;;;;15.63;11.00;;;5.80;1.00;;;;;;5021729;28;20156;-47
2023/02/07 03:23:20;;;;;;;16.57;12.10;;;5.90;1.00;;;;;;5031145;28;20095;-50
2023/02/07 03:25:48;;;;;;;15.70;11.20;;;5.90;1.00;;;;;;5031328;28;20096;-48
2023/02/07 03:28:17;;;;;;;19.03;11.40;;;5.90;1.00;;;;;;5031154;28;20515;-51
2023/02/07 03:30:45;;;;;;;15.10;11.40;;;5.90;1.00;;;;;;5031368;28;20022;-49
2023/02/07 03:33:13;;;;;;;15.07;10.93;;;5.90;1.00;;;;;;5033290;28;20022;-50
2023/02/07 03:35:52;;;;;;;16.13;11.97;;;5.80;1.00;;;;;;5034650;28;20037;-49
2023/02/07 03:38:18;;;;;;;15.50;10.93;;;5.90;1.00;;;;;;5031851;28;20501;-48
2023/02/07 03:40:52;;;;;;;17.33;11.70;;;5.90;1.00;;;;;;5033128;28;20021;-54
2023/02/07 03:43:26;;;;;;;14.97;11.67;;;5.90;1.00;;;;;;5034576;28;20029;-47
2023/02/07 03:45:52;;;;;;;17.40;11.00;;;5.80;1.00;;;;;;5034817;28;20021;-48
2023/02/07 03:48:18;;;;;;;15.93;11.50;;;5.90;1.00;;;;;;5044732;28;20401;-47
2023/02/07 03:50:46;;;;;;;17.33;12.33;;;5.80;1.00;;;;;;5036267;28;20484;-48
2023/02/07 03:53:12;;;;;;;15.57;11.63;;;5.70;1.00;;;;;;5034269;28;20026;-48
2023/02/07 03:55:37;;;;;;;17.30;11.80;;;5.80;1.00;;;;;;5034602;28;20108;-48
2023/02/07 03:58:03;;;;;;;15.13;11.57;;;5.80;1.00;;;;;;5046483;28;20083;-47
2023/02/07 04:00:29;;;;;;;19.83;12.70;;;5.70;1.00;;;;;;5034200;28;20309;-48
2023/02/07 04:02:55;;;;;;;18.50;12.07;;;5.70;1.00;;;;;;5033826;28;20108;-47
2023/02/07 04:05:20;;;;;;;15.47;10.97;;;5.80;1.00;;;;;;5034043;28;20030;-49
2023/02/07 04:07:47;;;;;;;16.80;11.20;;;5.70;1.00;;;;;;5033862;28;20033;-49
2023/02/07 04:10:12;;;;;;;17.27;12.10;;;5.80;1.00;;;;;;5033814;28;20068;-47
2023/02/07 04:12:38;;;;;;;18.30;12.43;;;5.70;1.00;;;;;;5034996;28;20057;-48
2023/02/07 04:15:05;;;;;;;15.70;12.27;;;5.80;1.00;;;;;;5045121;28;20025;-48
2023/02/07 04:17:31;;;;;;;17.10;12.07;;;5.60;1.00;;;;;;5034127;28;20356;-46
2023/02/07 04:19:56;;;;;;;16.73;12.10;;;5.70;1.00;;;;;;5023981;28;20494;-48
2023/02/07 04:22:22;;;;;;;18.10;12.10;;;5.70;1.00;;;;;;5034307;28;20033;-48
2023/02/07 04:24:48;;;;;;;15.80;11.63;;;5.60;1.00;;;;;;5033891;28;20032;-49
2023/02/07 04:27:14;;;;;;;18.93;12.60;;;5.70;1.00;;;;;;5033932;28;20044;-50
2023/02/07 04:29:40;;;;;;;16.43;11.47;;;5.60;1.00;;;;;;5033580;28;20080;-50
2023/02/07 04:32:05;;;;;;;15.73;11.20;;;5.60;1.00;;;;;;5033563;28;20033;-48
2023/02/07 04:34:31;;;;;;;15.33;11.37;;;5.60;1.00;;;;;;5033731;28;20021;-49
2023/02/07 04:36:56;;;;;;;16.57;10.97;;;5.60;1.00;;;;;;5033527;28;20088;-49
2023/02/07 04:39:22;;;;;;;15.23;10.50;;;5.70;1.00;;;;;;5033610;28;20029;-50
2023/02/07 04:41:48;;;;;;;16.30;10.63;;;5.80;1.00;;;;;;5033620;28;20060;-51
2023/02/07 04:44:13;;;;;;;17.73;10.27;;;5.70;1.00;;;;;;5033277;28;20045;-50
2023/02/07 04:46:40;;;;;;;11.23;9.07;;;5.70;1.00;;;;;;5033595;28;20413;-52
2023/02/07 04:49:06;;;;;;;16.77;9.87;;;5.70;1.00;;;;;;5046998;28;20131;-50
2023/02/07 04:51:32;;;;;;;12.80;9.07;;;5.70;1.00;;;;;;5033671;28;20025;-48
2023/02/07 04:53:58;;;;;;;13.27;8.87;;;5.70;1.00;;;;;;5033244;28;20098;-49
2023/02/07 04:56:23;;;;;;;12.40;8.93;;;5.70;1.00;;;;;;5033313;28;20029;-49
2023/02/07 04:58:49;;;;;;;15.43;9.87;;;5.40;1.00;;;;;;5031976;28;20183;-49
2023/02/07 05:01:15;;;;;;;12.77;9.23;;;5.60;1.00;;;;;;5033639;28;20075;-48
2023/02/07 05:03:41;;;;;;;13.03;9.07;;;5.60;1.00;;;;;;5032980;28;20427;-49
2023/02/07 05:06:06;;;;;;;15.50;8.93;;;5.70;1.00;;;;;;5020898;28;20455;-48
2023/02/07 05:08:34;;;;;;;14.10;8.77;;;5.70;1.00;;;;;;5033038;28;20116;-51
2023/02/07 05:10:59;;;;;;;12.40;8.93;;;5.50;1.00;;;;;;5032852;28;20037;-49
2023/02/07 05:13:25;;;;;;;9.60;7.53;;;5.60;1.00;;;;;;5033118;28;20021;-48
2023/02/07 05:15:51;;;;;;;10.77;7.43;;;5.60;1.00;;;;;;5031384;28;20029;-49
2023/02/07 05:18:17;;;;;;;13.33;8.37;;;5.60;1.00;;;;;;5033222;28;20025;-48
2023/02/07 05:20:43;;;;;;;12.10;7.90;;;5.60;1.00;;;;;;5033172;28;20053;-48
2023/02/07 05:23:09;;;;;;;10.07;7.23;;;5.50;1.00;;;;;;5032760;28;20105;-52
2023/02/07 05:25:35;;;;;;;12.83;7.87;;;5.60;1.00;;;;;;5033078;28;20108;-48
2023/02/07 05:28:00;;;;;;;9.67;8.00;;;5.60;1.00;;;;;;5032617;28;20479;-48
2023/02/07 05:30:26;;;;;;;13.47;8.83;;;5.60;1.00;;;;;;5032633;28;20022;-50
2023/02/07 05:33:04;;;;;;;14.43;9.13;;;5.50;1.00;;;;;;5032496;28;20112;-49
2023/02/07 05:35:35;;;;;;;11.13;8.73;;;5.60;1.00;;;;;;5032488;28;20079;-49
2023/02/07 05:38:04;;;;;;;11.63;7.73;;;5.60;1.00;;;;;;5032538;28;20017;-48
2023/02/07 05:40:31;;;;;;;12.43;9.00;;;5.70;1.00;;;;;;5032326;28;20026;-49
2023/02/07 05:42:56;;;;;;;12.13;8.83;;;5.70;1.00;;;;;;5018334;28;20436;-48
2023/02/07 05:45:22;;;;;;;14.37;7.80;;;5.60;1.00;;;;;;5032570;28;20029;-51
2023/02/07 05:47:48;;;;;;;11.20;7.97;;;5.70;1.00;;;;;;5040550;28;20044;-49
2023/02/07 05:50:14;;;;;;;12.20;8.60;;;5.60;1.00;;;;;;5036370;28;20093;-48
2023/02/07 05:52:39;;;;;;;14.07;8.57;;;5.60;1.00;;;;;;5032160;28;20037;-51
2023/02/07 05:55:05;;;;;;;12.43;8.87;;;5.70;1.00;;;;;;5031752;28;20024;-48
2023/02/07 05:57:31;;;;;;;15.83;9.63;;;5.70;1.00;;;;;;5032454;28;20024;-51
2023/02/07 05:59:57;;;;;;;15.80;9.07;;;5.70;1.00;;;;;;5032213;28;20021;-49
2023/02/07 06:02:23;;;;;;;11.97;8.20;;;5.70;1.00;;;;;;5018914;28;20067;-54
2023/02/07 06:04:48;;;;;;;11.87;8.20;;;5.70;1.00;;;;;;5032064;28;20033;-49
2023/02/07 06:07:14;;;;;;;10.67;8.50;;;5.60;1.00;;;;;;5032155;28;20541;-48
2023/02/07 06:09:39;;;;;;;10.73;7.67;;;5.60;1.00;;;;;;5032200;28;20021;-51
2023/02/07 06:12:05;;;;;;;11.37;7.27;;;5.60;1.00;;;;;;5031944;28;20045;-52
2023/02/07 06:14:31;;;;;;;11.97;7.43;;;5.60;1.00;;;;;;5030538;28;20014;-53
2023/02/07 06:16:57;;;;;;;11.53;8.17;;;5.60;1.00;;;;;;5032005;28;20033;-53
2023/02/07 06:19:22;;;;;;;13.67;8.40;;;5.60;1.00;;;;;;5031855;28;20029;-50
2023/02/07 06:21:48;;;;;;;11.57;6.77;;;5.60;1.00;;;;;;5032092;28;20029;-50
2023/02/07 06:24:14;;;;;;;11.33;7.63;;;5.60;1.00;;;;;;5031856;28;20033;-52
2023/02/07 06:26:40;;;;;;;10.83;6.47;;;5.50;1.00;;;;;;5031914;28;20038;-49
2023/02/07 06:29:06;;;;;;;8.93;6.63;;;5.50;1.00;;;;;;5030821;28;20144;-48
2023/02/07 06:31:31;;;;;;;9.50;5.80;;;5.40;1.00;;;;;;5031680;28;20032;-48
2023/02/07 06:33:57;;;;;;;11.73;6.77;;;5.40;1.00;;;;;;5031634;28;20029;-48
2023/02/07 06:36:22;;;;;;;9.73;6.27;;;5.50;1.00;;;;;;5031661;28;20051;-49
2023/02/07 06:38:48;;;;;;;9.00;6.43;;;5.50;1.00;;;;;;5029458;28;20030;-48
2023/02/07 06:41:14;;;;;;;11.10;5.97;;;5.50;1.00;;;;;;5029371;28;20029;-50
2023/02/07 06:43:40;;;;;;;8.33;5.70;;;5.30;1.00;;;;;;5031543;28;20029;-49
2023/02/07 06:46:06;;;;;;;7.00;5.40;;;5.30;1.00;;;;;;5031608;28;20037;-50
2023/02/07 06:48:32;;;;;;;10.67;5.50;;;5.50;1.00;;;;;;5045803;28;20029;-49
2023/02/07 06:50:58;;;;;;;7.93;5.60;;;5.30;1.00;;;;;;5031522;28;20592;-48
2023/02/07 06:53:23;;;;;;;11.37;6.10;;;5.40;1.00;;;;;;5031700;28;20029;-49
2023/02/07 06:55:49;;;;;;;7.80;6.13;;;5.50;1.00;;;;;;5031359;28;20045;-49
2023/02/07 06:58:15;;;;;;;9.60;5.50;;;5.50;1.00;;;;;;5031598;28;20036;-49
2023/02/07 07:00:40;;;;;;;9.17;5.30;;;5.50;1.00;;;;;;5031402;28;20069;-48
2023/02/07 07:03:08;;;;;;;7.00;5.73;;;5.40;1.00;;;;;;5031190;28;20048;-48
2023/02/07 07:05:34;;;;;;;9.53;5.67;;;5.40;1.00;;;;;;5031312;28;20034;-50
2023/02/07 07:07:59;;;;;;;9.23;5.93;;;5.50;1.00;;;;;;5035103;28;20040;-48
2023/02/07 07:10:25;;;;;;;13.17;6.77;;;5.60;1.00;;;;;;5035289;28;20134;-49
2023/02/07 07:12:50;;;;;;;8.07;6.23;;;5.70;1.00;;;;;;5034992;28;20554;-50
2023/02/07 07:15:16;;;;;;;11.13;6.27;;;5.60;1.00;;;;;;5035156;28;20034;-49
2023/02/07 07:17:42;;;;;;;11.67;7.00;;;5.60;1.00;;;;;;5035185;28;20048;-53
2023/02/07 07:20:08;;;;;;;11.07;7.27;;;5.60;1.00;;;;;;5034942;28;20376;-51
2023/02/07 07:22:34;;;;;;;8.30;6.37;;;5.60;1.00;;;;;;5034761;28;20033;-49
2023/02/07 07:24:59;;;;;;;13.63;8.10;;;5.60;1.00;;;;;;5034862;28;20080;-50
2023/02/07 07:27:25;;;;;;;8.97;6.50;;;5.70;1.00;;;;;;5034706;28;20029;-52
2023/02/07 07:29:51;;;;;;;10.33;7.33;;;5.60;1.00;;;;;;5034820;28;20056;-51
2023/02/07 07:32:17;;;;;;;9.70;6.43;;;5.60;1.00;;;;;;5034958;28;20022;-50
2023/02/07 07:34:42;;;;;;;15.97;7.73;;;5.60;1.00;;;;;;5034501;28;20014;-50
2023/02/07 07:37:10;;;;;;;10.60;6.63;;;5.70;1.00;;;;;;5034759;28;20029;-50
2023/02/07 07:39:35;;;;;;;12.17;7.07;;;5.70;1.00;;;;;;5034997;28;20374;-48
2023/02/07 07:42:02;;;;;;;11.80;7.00;;;5.70;1.00;;;;;;5035357;28;20113;-48
2023/02/07 07:44:27;;;;;;;11.40;6.63;;;5.60;1.00;;;;;;5034593;28;20018;-51
2023/02/07 07:46:53;;;;;;;10.70;7.10;;;5.70;1.00;;;;;;5036757;28;20028;-50
2023/02/07 07:49:19;;;;;;;10.03;7.07;;;5.60;1.00;;;;;;5046182;28;20431;-50
2023/02/07 07:51:45;;;;;;;10.07;6.87;;;5.50;1.00;;;;;;5034335;28;20128;-51
2023/02/07 07:54:12;;;;;;;11.93;7.37;;;5.60;1.00;;;;;;5034696;28;20497;-51
2023/02/07 07:56:37;;;;;;;13.03;7.30;;;5.70;1.00;;;;;;5034487;28;20025;-48
2023/02/07 07:59:03;;;;;;;8.50;6.47;;;5.60;1.00;;;;;;5033054;28;20029;-50
2023/02/07 08:01:29;;;;;;;14.53;7.37;;;5.70;1.00;;;;;;5035512;28;20028;-51
2023/02/07 08:03:54;;;;;;;13.70;7.00;;;5.60;1.00;;;;;;5033811;28;20095;-51
2023/02/07 08:06:20;;;;;;;9.40;6.27;;;5.70;1.00;;;;;;5031837;28;20013;-54
2023/02/07 08:08:46;;;;;;;9.27;5.60;;;5.60;1.00;;;;;;5034214;28;20030;-51
2023/02/07 08:11:12;;;;;;;10.50;6.17;;;5.50;1.00;;;;;;5031159;28;20025;-48
2023/02/07 08:13:37;;;;;;;9.83;6.07;;;5.50;1.00;;;;;;5032499;28;20076;-48
2023/02/07 08:16:07;;;;;;;10.37;5.90;;;5.60;1.00;;;;;;5032171;28;20021;-52
2023/02/07 08:18:36;;;;;;;10.13;6.73;;;5.70;1.00;;;;;;5032340;28;20037;-50
2023/02/07 08:21:02;;;;;;;10.67;6.10;;;5.70;1.00;;;;;;5033708;28;20032;-48
2023/02/07 08:23:27;;;;;;;13.17;6.23;;;5.70;1.00;;;;;;5032354;28;20048;-49
2023/02/07 08:25:53;;;;;;;8.50;5.90;;;5.90;1.00;;;;;;5033863;28;20029;-50
2023/02/07 08:28:19;;;;;;;8.30;5.47;;;6.00;1.00;;;;;;5032163;28;20041;-48
2023/02/07 08:30:48;;;;;;;8.53;5.67;;;5.80;1.00;;;;;;5033566;28;20128;-49
2023/02/07 08:33:15;;;;;;;8.40;5.57;;;5.80;1.00;;;;;;5033515;28;20159;-48
2023/02/07 08:35:41;;;;;;;7.77;5.20;;;5.90;1.00;;;;;;5033978;28;20048;-50
2023/02/07 08:38:07;;;;;;;8.23;5.70;;;6.00;1.00;;;;;;5032560;28;20041;-51
2023/02/07 08:40:33;;;;;;;9.33;5.57;;;6.00;1.00;;;;;;5033499;28;20029;-49
2023/02/07 08:42:59;;;;;;;8.67;5.80;;;6.00;1.00;;;;;;5033535;28;20047;-47
2023/02/07 08:45:25;;;;;;;9.20;5.13;;;6.00;1.00;;;;;;5033241;28;20034;-51
2023/02/07 08:47:50;;;;;;;10.23;6.20;;;6.10;1.00;;;;;;5043688;28;20048;-50
2023/02/07 08:50:16;;;;;;;10.93;6.23;;;5.90;1.00;;;;;;5035717;28;20029;-48
2023/02/07 08:52:42;;;;;;;9.67;6.00;;;6.00;1.00;;;;;;5033564;28;20409;-49
2023/02/07 08:55:09;;;;;;;14.20;6.60;;;6.00;1.00;;;;;;5031802;28;20072;-49
2023/02/07 08:57:35;;;;;;;11.93;5.83;;;6.00;1.00;;;;;;5033305;28;20095;-49
2023/02/07 09:00:01;;;;;;;7.53;4.63;;;6.00;1.00;;;;;;5033452;28;20034;-47
2023/02/07 09:02:27;;;;;;;8.23;5.30;;;6.00;1.00;;;;;;5031587;28;20036;-47
2023/02/07 09:04:52;;;;;;;7.63;5.77;;;5.90;1.00;;;;;;5033295;28;20207;-50
2023/02/07 09:07:19;;;;;;;9.33;6.00;;;6.00;1.00;;;;;;5033106;28;20067;-50
2023/02/07 09:09:45;;;;;;;10.50;5.70;;;6.00;1.00;;;;;;5033158;28;20030;-51
2023/02/07 09:12:11;;;;;;;13.00;6.47;;;6.00;1.00;;;;;;5033021;28;20018;-49
2023/02/07 09:14:38;;;;;;;11.40;6.17;;;6.20;1.00;;;;;;5032934;28;20021;-50
2023/02/07 09:17:04;;;;;;;14.07;6.03;;;6.10;1.00;;;;;;5032960;28;20026;-48
2023/02/07 09:19:31;;;;;;;9.73;6.00;;;6.10;1.00;;;;;;5033020;28;20033;-48
2023/02/07 09:21:56;;;;;;;12.90;6.93;;;6.30;1.00;;;;;;5032772;28;20025;-51
2023/02/07 09:24:22;;;;;;;10.50;6.33;;;6.30;1.00;;;;;;5032746;28;20029;-49
2023/02/07 09:26:48;;;;;;;13.77;8.07;;;6.30;1.00;;;;;;5032614;28;20041;-49
2023/02/07 09:29:14;;;;;;;13.93;9.37;;;6.10;1.00;;;;;;5032170;28;20030;-48
2023/02/07 09:31:41;;;;;;;9.23;6.50;;;6.20;1.00;;;;;;5031015;28;20467;-49
2023/02/07 09:34:06;;;;;;;8.23;5.83;;;6.30;1.00;;;;;;5031063;28;20041;-51
2023/02/07 09:36:32;;;;;;;8.40;5.43;;;6.30;1.00;;;;;;5031777;28;20022;-52
2023/02/07 09:38:58;;;;;;;11.67;6.37;;;6.40;1.00;;;;;;5032435;28;20125;-50
2023/02/07 09:42:20;;;;;;;9.63;5.43;;;6.30;1.00;;;;;;5032416;28;20100;-47
2023/02/07 09:44:57;;;;;;;9.23;5.83;;;6.20;1.00;;;;;;5010388;28;20032;-48
2023/02/07 09:47:25;;;;;;;8.93;6.10;;;6.30;1.00;;;;;;5036010;28;20155;-48
2023/02/07 09:50:00;;;;;;;10.63;5.77;;;6.20;1.00;;;;;;5038431;28;20022;-50
2023/02/07 09:52:40;;;;;;;9.90;6.17;;;6.10;1.00;;;;;;5032579;28;20037;-48
2023/02/07 09:55:23;;;;;;;9.50;5.93;;;6.30;1.00;;;;;;5032404;28;20168;-50
2023/02/07 09:57:55;;;;;;;8.10;5.53;;;6.20;1.00;;;;;;5032455;28;20029;-48
2023/02/07 10:00:25;;;;;;;8.47;5.73;;;6.30;1.00;;;;;;5032531;28;20037;-50
2023/02/07 10:02:56;;;;;;;9.93;5.97;;;6.30;1.00;;;;;;5032228;28;20056;-51
2023/02/07 10:05:56;;;;;;;8.77;5.53;;;6.40;1.00;;;;;;5032263;28;20029;-48
2023/02/07 10:08:22;;;;;;;7.23;5.53;;;6.40;1.00;;;;;;5028609;28;20053;-48
2023/02/07 10:11:09;;;;;;;8.53;5.97;;;6.40;1.00;;;;;;5032464;28;20044;-52
2023/02/07 10:13:47;;;;;;;10.57;6.00;;;6.50;1.00;;;;;;5032338;28;20025;-53
2023/02/07 10:16:21;;;;;;;9.70;5.87;;;6.60;1.00;;;;;;5032560;28;20032;-48
2023/02/07 10:18:56;;;;;;;12.30;6.25;;;6.60;1.00;;;;;;5031607;28;20176;-50
2023/02/07 10:21:25;;;;;;;8.87;6.20;;;6.60;1.00;;;;;;5021394;28;20087;-48
2023/02/07 10:24:05;;;;;;;10.47;5.70;;;6.60;1.00;;;;;;5031984;28;20041;-48
2023/02/07 10:26:36;;;;;;;10.10;6.20;;;6.60;1.00;;;;;;5032098;28;20025;-53
2023/02/07 10:29:05;;;;;;;8.57;5.60;;;6.60;1.00;;;;;;5032085;28;20025;-55
2023/02/07 10:31:35;;;;;;;11.13;6.30;;;6.70;1.00;;;;;;5032028;28;20021;-51
2023/02/07 10:34:10;;;;;;;9.63;6.07;;;6.70;1.00;;;;;;5031957;28;20084;-50
2023/02/07 10:36:35;;;;;;;10.90;6.00;;;6.70;1.00;;;;;;5031820;28;20450;-53
2023/02/07 10:39:13;;;;;;;11.87;6.70;;;6.70;1.00;;;;;;5031756;28;20088;-50
2023/02/07 10:41:41;;;;;;;9.20;5.47;;;6.60;1.00;;;;;;5033395;28;20033;-49
2023/02/07 10:44:15;;;;;;;10.13;6.50;;;6.80;1.00;;;;;;5035621;28;20037;-48
2023/02/07 10:46:43;;;;;;;10.60;6.20;;;6.90;1.00;;;;;;5036253;28;20083;-49
2023/02/07 10:49:20;;;;;;;12.13;7.07;;;6.90;1.00;;;;;;5049005;28;20128;-49
2023/02/07 10:51:46;;;;;;;12.27;6.87;;;6.90;1.00;;;;;;5035568;28;20017;-54
2023/02/07 10:54:19;;;;;;;13.80;7.30;;;7.00;1.00;;;;;;5035440;28;20065;-50
2023/02/07 10:56:54;;;;;;;7.17;5.77;;;7.00;1.00;;;;;;5035412;28;20033;-49
2023/02/07 10:59:37;;;;;;;13.63;6.80;;;6.80;1.00;;;;;;5020784;28;20074;-49
2023/02/07 11:02:31;;;;;;;10.83;6.23;;;6.90;1.00;;;;;;5035208;28;20035;-52
2023/02/07 11:04:59;;;;;;;10.73;6.53;;;7.00;1.00;;;;;;5035204;28;20034;-52
2023/02/07 11:07:26;;;;;;;9.30;7.17;;;6.90;1.00;;;;;;5034678;28;20037;-49
2023/02/07 11:10:23;;;;;;;15.37;6.70;;;6.90;1.00;;;;;;5035018;28;20052;-48
2023/02/07 11:12:53;;;;;;;9.43;6.47;;;7.10;1.00;;;;;;5034914;28;20025;-49
2023/02/07 11:15:22;;;;;;;12.70;8.47;;;7.10;1.00;;;;;;5034684;28;20025;-48
2023/02/07 11:17:50;;;;;;;11.13;7.67;;;7.20;1.00;;;;;;5034919;28;20079;-50
2023/02/07 11:20:29;;;;;;;9.13;6.50;;;7.20;1.00;;;;;;5034045;28;20076;-49
2023/02/07 11:22:56;;;;;;;12.50;6.73;;;7.20;1.00;;;;;;5033877;28;20124;-57
2023/02/07 11:25:41;;;;;;;12.87;7.30;;;7.20;1.00;;;;;;5031892;28;20060;-49
2023/02/07 11:28:18;;;;;;;10.38;6.18;;;7.20;1.00;;;;;;5035170;28;20110;-47
2023/02/07 11:30:45;;;;;;;8.67;6.63;;;7.30;1.00;;;;;;5025640;28;20498;-47
2023/02/07 11:33:18;;;;;;;8.40;6.40;;;7.20;1.00;;;;;;5030643;28;20475;-52
2023/02/07 11:36:04;;;;;;;12.00;6.87;;;7.20;1.00;;;;;;5032614;28;20014;-58
2023/02/07 11:38:30;;;;;;;9.77;6.13;;;7.10;1.00;;;;;;5034477;28;20033;-56
2023/02/07 11:41:05;;;;;;;7.43;6.43;;;7.20;1.00;;;;;;5034729;28;20072;-56
2023/02/07 11:43:32;;;;;;;;;;;7.10;1.00;;;;;;5034954;28;20041;-52
2023/02/07 11:46:08;;;;;;;10.63;6.67;;;6.90;1.00;;;;;;5034709;28;19905;-56
2023/02/07 11:48:37;;;;;;;9.03;6.20;;;6.90;1.00;;;;;;5047117;28;20506;-50
2023/02/07 11:51:05;;;;;;;9.37;6.10;;;7.10;1.00;;;;;;5034432;28;20028;-65
2023/02/07 11:53:33;;;;;;;11.17;6.93;;;7.10;1.00;;;;;;5033150;28;20501;-51
2023/02/07 11:55:59;;;;;;;9.27;6.43;;;7.00;1.00;;;;;;5034231;28;20153;-50
2023/02/07 11:58:38;;;;;;;9.97;6.23;;;7.20;1.00;;;;;;5032705;28;20017;-48
2023/02/07 12:01:06;;;;;;;11.67;7.17;;;7.20;1.00;;;;;;5026853;28;20167;-53
2023/02/07 12:03:48;;;;;;;9.60;6.47;;;7.20;1.00;;;;;;5030258;28;20041;-50
2023/02/07 12:06:17;;;;;;;9.87;6.83;;;7.40;1.00;;;;;;5034239;28;20041;-54
2023/02/07 12:08:43;;;;;;;10.10;6.63;;;7.20;1.00;;;;;;5034139;28;20040;-50
2023/02/07 12:11:20;;;;;;;10.10;6.70;;;7.40;1.00;;;;;;5034048;28;20026;-52
2023/02/07 12:13:51;;;;;;;10.93;6.40;;;7.40;1.00;;;;;;5034386;28;20077;-53
2023/02/07 12:16:39;;;;;;;12.27;7.17;;;7.30;1.00;;;;;;5033915;28;20129;-50
2023/02/07 12:19:11;;;;;;;9.50;7.07;;;7.40;1.00;;;;;;5033822;28;20021;-48
2023/02/07 12:21:45;;;;;;;12.17;6.30;;;7.40;1.00;;;;;;5033803;28;20100;-48
2023/02/07 12:24:23;;;;;;;9.00;6.30;;;7.50;1.00;;;;;;5033764;28;20038;-53
2023/02/07 12:26:58;;;;;;;8.77;6.27;;;7.50;1.00;;;;;;5033796;28;20495;-51
2023/02/07 12:29:42;;;;;;;;;;;7.40;1.00;;;;;;5034158;28;20018;-50
2023/02/07 12:32:25;;;;;;;7.83;5.80;;;7.30;1.00;;;;;;5023818;28;19951;-51
2023/02/07 12:35:20;;;;;;;9.20;5.70;;;7.50;1.00;;;;;;5032665;28;20116;-50
2023/02/07 12:37:50;;;;;;;11.10;6.67;;;7.50;1.00;;;;;;5033515;28;20075;-48
2023/02/07 12:40:25;;;;;;;9.90;7.10;;;7.70;1.00;;;;;;5033797;28;20037;-50
2023/02/07 12:43:06;;;;;;;8.27;6.07;;;7.70;1.00;;;;;;5033457;28;20033;-49
2023/02/07 12:45:45;;;;;;;9.03;6.50;;;7.80;1.00;;;;;;5033657;28;20049;-49
2023/02/07 12:48:26;;;;;;;9.53;6.30;;;7.80;1.00;;;;;;5046189;28;20032;-49
2023/02/07 12:51:51;;;;;;;11.50;6.90;;;7.90;1.00;;;;;;5020722;28;20021;-49
2023/02/07 12:54:25;;;;;;;8.77;7.23;;;7.90;1.00;;;;;;5018759;28;20155;-50
2023/02/07 12:57:06;;;;;;;8.55;6.57;;;7.90;1.00;;;;;;5031252;28;20029;-52
2023/02/07 13:00:00;;;;;;;8.83;5.80;;;7.70;1.00;;;;;;5032499;28;20120;-53
2023/02/07 13:03:07;;;;;;;7.70;6.23;;;8.00;1.00;;;;;;5033160;28;20025;-49
2023/02/07 13:06:08;;;;;;;9.57;6.20;;;7.90;1.00;;;;;;5025445;28;20143;-51
2023/02/07 13:08:46;;;;;;;11.50;6.30;;;8.10;1.00;;;;;;5033132;28;20037;-51
2023/02/07 13:11:33;;;;;;;9.33;7.03;;;8.00;1.00;;;;;;5019925;28;20436;-53
2023/02/07 13:14:22;;;;;;;11.67;6.37;;;7.80;1.00;;;;;;5033104;28;20035;-52